Time;durP1;ratioP1;P1;durP2;ratioP2;P2;SDS_P1;SDS_P2;PMS_P1;PMS_P2;Temp;Humidity;BMP_temperature;BMP_pressure;BME280_temperature;BME280_humidity;BME280_pressure;Samples;Min_cycle;Max_cycle;Signal;HPM_P1;HPM_P2
2021/10/18 00:02:16;;;;;;;6.10;5.50;;;;;;;;;;4975081;28;20264;-86
2021/10/18 00:04:43;;;;;;;5.90;5.30;;;;;;;;;;4974337;28;20196;-86
2021/10/18 00:07:11;;;;;;;4.80;4.40;;;;;;;;;;4974309;28;20747;-86
2021/10/18 00:09:38;;;;;;;4.83;3.87;;;;;;;;;;4974910;28;20294;-86
2021/10/18 00:12:07;;;;;;;4.60;4.17;;;;;;;;;;4974891;28;20200;-86
2021/10/18 00:14:34;;;;;;;4.70;4.30;;;;;;;;;;4974693;28;20233;-85
2021/10/18 00:17:01;;;;;;;4.53;4.10;;;;;;;;;;4974844;28;20240;-86
2021/10/18 00:19:30;;;;;;;4.30;3.83;;;;;;;;;;4974980;28;20209;-85
2021/10/18 00:21:57;;;;;;;3.30;3.00;;;;;;;;;;4974946;28;20193;-86
2021/10/18 00:24:25;;;;;;;3.60;3.30;;;;;;;;;;4974919;28;20661;-86
2021/10/18 00:26:52;;;;;;;4.83;3.50;;;;;;;;;;4974685;28;20746;-86
2021/10/18 00:29:19;;;;;;;3.43;3.13;;;;;;;;;;4974868;28;20197;-86
2021/10/18 00:31:46;;;;;;;3.20;3.00;;;;;;;;;;4974671;28;20288;-85
2021/10/18 00:34:14;;;;;;;3.50;3.20;;;;;;;;;;4974349;28;20224;-86
2021/10/18 00:36:42;;;;;;;4.83;3.77;;;;;;;;;;4974277;28;20789;-86
2021/10/18 00:39:10;;;;;;;4.13;3.73;;;;;;;;;;4974571;28;20205;-85
2021/10/18 00:41:37;;;;;;;6.07;5.53;;;;;;;;;;4974170;28;20299;-86
2021/10/18 00:44:04;;;;;;;6.20;5.60;;;;;;;;;;4974487;28;20584;-86
2021/10/18 00:46:32;;;;;;;6.23;5.47;;;;;;;;;;4974359;28;20207;-85
2021/10/18 00:48:59;;;;;;;6.30;4.40;;;;;;;;;;4974224;28;20287;-85
2021/10/18 00:51:28;;;;;;;5.10;4.40;;;;;;;;;;4974520;28;20239;-86
2021/10/18 00:53:58;;;;;;;4.53;4.20;;;;;;;;;;4974033;28;20225;-84
2021/10/18 00:56:27;;;;;;;5.20;4.80;;;;;;;;;;4974487;28;20620;-85
2021/10/18 00:58:56;;;;;;;3.97;3.67;;;;;;;;;;4974091;28;20197;-86
2021/10/18 01:01:23;;;;;;;5.73;5.20;;;;;;;;;;4973790;28;20752;-85
2021/10/18 01:03:51;;;;;;;5.57;5.07;;;;;;;;;;4974092;28;20287;-85
2021/10/18 01:06:18;;;;;;;4.67;4.27;;;;;;;;;;4973800;28;20259;-85
2021/10/18 01:08:45;;;;;;;4.00;3.70;;;;;;;;;;4974031;28;20197;-86
2021/10/18 01:11:14;;;;;;;4.27;3.87;;;;;;;;;;4973578;28;20665;-85
2021/10/18 01:13:41;;;;;;;16.63;4.80;;;;;;;;;;4973786;28;20297;-85
2021/10/18 01:16:09;;;;;;;4.10;3.70;;;;;;;;;;4973670;28;20682;-86
2021/10/18 01:18:36;;;;;;;4.10;3.70;;;;;;;;;;4973639;28;20304;-85
2021/10/18 01:21:05;;;;;;;4.00;3.57;;;;;;;;;;4973675;28;20205;-85
2021/10/18 01:23:32;;;;;;;4.03;3.70;;;;;;;;;;4973811;28;20201;-85
2021/10/18 01:25:59;;;;;;;4.43;3.63;;;;;;;;;;4973863;28;20205;-85
2021/10/18 01:28:27;;;;;;;3.93;3.63;;;;;;;;;;4973475;28;20279;-86
2021/10/18 01:30:54;;;;;;;4.30;3.60;;;;;;;;;;4973902;28;20209;-86
2021/10/18 01:33:21;;;;;;;3.87;3.53;;;;;;;;;;4973519;28;20682;-86
2021/10/18 01:35:49;;;;;;;4.37;3.97;;;;;;;;;;4973359;28;20702;-85
2021/10/18 01:38:18;;;;;;;7.07;3.60;;;;;;;;;;4973216;28;20286;-86
2021/10/18 01:40:45;;;;;;;5.13;4.50;;;;;;;;;;4973395;28;20228;-86
2021/10/18 01:43:12;;;;;;;6.13;4.20;;;;;;;;;;4973725;28;20204;-85
2021/10/18 01:45:40;;;;;;;4.03;3.63;;;;;;;;;;4973386;28;20197;-85
2021/10/18 01:48:07;;;;;;;6.17;4.20;;;;;;;;;;4973233;28;20263;-85
2021/10/18 01:50:34;;;;;;;4.90;4.50;;;;;;;;;;4973336;28;20204;-85
2021/10/18 01:53:01;;;;;;;5.50;4.93;;;;;;;;;;4972849;28;20283;-85
2021/10/18 01:55:30;;;;;;;4.47;4.07;;;;;;;;;;4973215;28;20704;-85
2021/10/18 01:57:58;;;;;;;4.30;4.00;;;;;;;;;;4973403;28;20208;-85
2021/10/18 02:00:25;;;;;;;3.73;3.43;;;;;;;;;;4973496;28;20224;-85
2021/10/18 02:02:52;;;;;;;5.23;4.73;;;;;;;;;;4973150;28;20208;-85
2021/10/18 02:05:19;;;;;;;4.60;3.57;;;;;;;;;;4972986;28;20259;-84
2021/10/18 02:07:47;;;;;;;3.93;3.53;;;;;;;;;;4972996;28;20236;-85
2021/10/18 02:10:15;;;;;;;3.40;3.20;;;;;;;;;;4973005;28;20256;-85
2021/10/18 02:12:44;;;;;;;3.63;3.33;;;;;;;;;;4973235;28;20204;-85
2021/10/18 02:15:12;;;;;;;3.33;3.03;;;;;;;;;;4972845;28;20295;-85
2021/10/18 02:17:39;;;;;;;3.60;3.17;;;;;;;;;;4973316;28;20201;-86
2021/10/18 02:20:08;;;;;;;3.60;3.23;;;;;;;;;;4970491;28;20284;-86
2021/10/18 02:22:36;;;;;;;4.13;3.23;;;;;;;;;;4973075;28;20204;-86
2021/10/18 02:25:03;;;;;;;2.90;2.70;;;;;;;;;;4972780;28;20236;-86
2021/10/18 02:27:31;;;;;;;2.80;2.60;;;;;;;;;;4973252;28;20205;-86
2021/10/18 02:29:59;;;;;;;5.00;3.50;;;;;;;;;;4972337;28;20209;-86
2021/10/18 02:32:27;;;;;;;6.93;5.77;;;;;;;;;;4972785;28;20205;-85
2021/10/18 02:34:54;;;;;;;14.93;9.97;;;;;;;;;;4972949;28;20229;-84
2021/10/18 02:37:21;;;;;;;11.23;9.77;;;;;;;;;;4972366;28;20208;-84
2021/10/18 02:39:48;;;;;;;10.50;9.40;;;;;;;;;;4972747;28;20193;-84
2021/10/18 02:42:16;;;;;;;9.47;8.57;;;;;;;;;;4972577;28;20199;-84
2021/10/18 02:44:43;;;;;;;6.90;6.30;;;;;;;;;;4972772;28;20236;-85
2021/10/18 02:47:12;;;;;;;4.17;3.63;;;;;;;;;;4972989;28;20292;-85
2021/10/18 02:49:39;;;;;;;4.43;4.03;;;;;;;;;;4972404;28;20300;-84
2021/10/18 02:52:06;;;;;;;3.80;3.47;;;;;;;;;;4972376;28;20644;-84
2021/10/18 02:54:35;;;;;;;6.47;3.80;;;;;;;;;;4972586;28;20709;-84
2021/10/18 02:57:03;;;;;;;4.47;4.07;;;;;;;;;;4972288;28;20201;-84
2021/10/18 02:59:30;;;;;;;4.10;3.80;;;;;;;;;;4972503;28;20236;-84
2021/10/18 03:01:57;;;;;;;3.50;3.20;;;;;;;;;;4972497;28;20730;-84
2021/10/18 03:04:26;;;;;;;10.53;9.53;;;;;;;;;;4962758;28;20297;-85
2021/10/18 03:06:53;;;;;;;9.53;8.63;;;;;;;;;;4973687;28;20205;-87
2021/10/18 03:09:20;;;;;;;7.43;6.73;;;;;;;;;;4976052;28;20233;-85
2021/10/18 03:11:48;;;;;;;4.37;3.97;;;;;;;;;;4965036;28;20217;-85
2021/10/18 03:14:15;;;;;;;4.27;3.87;;;;;;;;;;4956690;29;20203;-86
2021/10/18 03:16:42;;;;;;;4.20;3.77;;;;;;;;;;4955884;29;20237;-85
2021/10/18 03:19:09;;;;;;;3.87;3.30;;;;;;;;;;4955703;29;20262;-85
2021/10/18 03:21:38;;;;;;;3.57;3.27;;;;;;;;;;4955759;29;20201;-85
2021/10/18 03:24:06;;;;;;;3.87;3.50;;;;;;;;;;4955523;29;20237;-85
2021/10/18 03:26:33;;;;;;;5.33;4.37;;;;;;;;;;4962834;28;20294;-85
2021/10/18 03:29:00;;;;;;;6.03;4.87;;;;;;;;;;4974978;28;20189;-84
2021/10/18 03:31:27;;;;;;;6.57;5.63;;;;;;;;;;4974451;28;20193;-85
2021/10/18 03:33:55;;;;;;;4.90;4.50;;;;;;;;;;4974884;28;20189;-85
2021/10/18 03:36:22;;;;;;;4.77;4.37;;;;;;;;;;4974334;28;20327;-84
2021/10/18 03:38:51;;;;;;;5.50;5.00;;;;;;;;;;4974770;28;20205;-85
2021/10/18 03:41:18;;;;;;;7.47;6.77;;;;;;;;;;4974559;28;20240;-86
2021/10/18 03:43:46;;;;;;;5.60;5.10;;;;;;;;;;4974376;28;20577;-85
2021/10/18 03:46:13;;;;;;;5.07;4.43;;;;;;;;;;4974480;28;20229;-85
2021/10/18 03:48:40;;;;;;;4.40;4.00;;;;;;;;;;4974594;28;20300;-85
2021/10/18 03:51:08;;;;;;;4.37;3.93;;;;;;;;;;4974465;28;20649;-85
2021/10/18 03:53:35;;;;;;;4.80;3.50;;;;;;;;;;4974529;28;20209;-85
2021/10/18 03:56:04;;;;;;;3.83;3.50;;;;;;;;;;4974063;28;20227;-85
2021/10/18 03:58:31;;;;;;;3.70;3.40;;;;;;;;;;4974124;28;20205;-86
2021/10/18 04:00:59;;;;;;;3.50;3.20;;;;;;;;;;4974569;28;20240;-86
2021/10/18 04:03:26;;;;;;;3.60;3.07;;;;;;;;;;4974269;28;20205;-83
2021/10/18 04:05:53;;;;;;;5.20;3.63;;;;;;;;;;4973949;28;20301;-84
2021/10/18 04:08:23;;;;;;;4.57;4.07;;;;;;;;;;4974098;28;20262;-84
2021/10/18 04:10:50;;;;;;;5.03;3.83;;;;;;;;;;4973612;28;20255;-85
2021/10/18 04:13:19;;;;;;;13.47;9.80;;;;;;;;;;4974114;28;20235;-86
2021/10/18 04:15:46;;;;;;;13.40;9.70;;;;;;;;;;4973491;28;20625;-85
2021/10/18 04:18:13;;;;;;;16.10;8.83;;;;;;;;;;4974095;28;20283;-85
2021/10/18 04:20:41;;;;;;;8.27;7.43;;;;;;;;;;4973794;28;20265;-85
2021/10/18 04:23:08;;;;;;;10.63;9.07;;;;;;;;;;4974100;28;20201;-86
2021/10/18 04:25:35;;;;;;;9.27;8.47;;;;;;;;;;4973811;28;20251;-85
2021/10/18 04:28:03;;;;;;;10.60;9.50;;;;;;;;;;4974385;28;20205;-85
2021/10/18 04:30:31;;;;;;;9.17;8.27;;;;;;;;;;4971646;28;20212;-85
2021/10/18 04:32:59;;;;;;;9.57;8.03;;;;;;;;;;4972551;28;20295;-85
2021/10/18 04:35:26;;;;;;;9.03;8.13;;;;;;;;;;4974024;28;20323;-85
2021/10/18 04:37:53;;;;;;;8.03;7.30;;;;;;;;;;4974541;28;20260;-85
2021/10/18 04:40:20;;;;;;;9.17;8.27;;;;;;;;;;4974267;28;20209;-85
2021/10/18 04:42:48;;;;;;;10.20;8.37;;;;;;;;;;4971597;28;20292;-86
2021/10/18 04:45:15;;;;;;;8.00;7.27;;;;;;;;;;4955242;29;20634;-85
2021/10/18 04:47:44;;;;;;;8.93;7.43;;;;;;;;;;4954249;29;20628;-85
2021/10/18 04:50:12;;;;;;;7.87;7.27;;;;;;;;;;4954835;29;20663;-85
2021/10/18 04:52:39;;;;;;;12.63;8.80;;;;;;;;;;4955105;29;20210;-86
2021/10/18 04:55:07;;;;;;;7.77;6.67;;;;;;;;;;4954722;29;20325;-84
2021/10/18 04:57:35;;;;;;;12.33;11.10;;;;;;;;;;4954862;29;20202;-86
2021/10/18 05:00:02;;;;;;;15.63;11.50;;;;;;;;;;4954784;29;20202;-85
2021/10/18 05:02:29;;;;;;;17.13;15.23;;;;;;;;;;4954759;29;20264;-86
2021/10/18 05:04:58;;;;;;;8.60;7.80;;;;;;;;;;4958045;28;20204;-86
2021/10/18 05:07:25;;;;;;;12.80;10.03;;;;;;;;;;4973865;28;20233;-86
2021/10/18 05:09:52;;;;;;;20.53;15.63;;;;;;;;;;4967729;28;20305;-85
2021/10/18 05:12:20;;;;;;;14.90;13.30;;;;;;;;;;4954557;29;20205;-85
2021/10/18 05:14:47;;;;;;;9.63;8.63;;;;;;;;;;4954602;29;20288;-85
2021/10/18 05:17:14;;;;;;;8.23;6.60;;;;;;;;;;4954395;29;20726;-86
2021/10/18 05:19:41;;;;;;;9.00;8.10;;;;;;;;;;4954313;29;20202;-86
2021/10/18 05:22:10;;;;;;;9.60;8.10;;;;;;;;;;4954341;29;20233;-85
2021/10/18 05:24:37;;;;;;;13.00;11.40;;;;;;;;;;4954764;29;20280;-85
2021/10/18 05:27:05;;;;;;;12.23;11.13;;;;;;;;;;4954321;28;20293;-86
2021/10/18 05:29:32;;;;;;;15.17;13.77;;;;;;;;;;4953873;29;20260;-86
2021/10/18 05:32:00;;;;;;;12.97;11.63;;;;;;;;;;4954196;29;20693;-85
2021/10/18 05:34:27;;;;;;;10.90;9.80;;;;;;;;;;4966622;28;20674;-86
2021/10/18 05:36:54;;;;;;;9.83;8.90;;;;;;;;;;4973078;28;20232;-85
2021/10/18 05:39:23;;;;;;;8.63;7.70;;;;;;;;;;4973584;28;20248;-86
2021/10/18 05:41:50;;;;;;;9.97;9.03;;;;;;;;;;4973434;28;20256;-86
2021/10/18 05:44:18;;;;;;;7.50;6.43;;;;;;;;;;4973732;28;20668;-84
2021/10/18 05:46:45;;;;;;;5.80;5.37;;;;;;;;;;4973574;28;20195;-85
2021/10/18 05:49:12;;;;;;;5.43;4.70;;;;;;;;;;4973467;28;20236;-85
2021/10/18 05:51:39;;;;;;;6.27;5.43;;;;;;;;;;4973249;28;20251;-85
2021/10/18 05:54:07;;;;;;;6.27;5.43;;;;;;;;;;4973224;28;20197;-85
2021/10/18 05:56:36;;;;;;;5.60;5.10;;;;;;;;;;4973100;28;20243;-85
2021/10/18 05:59:05;;;;;;;5.00;4.60;;;;;;;;;;4973752;28;20225;-85
2021/10/18 06:01:32;;;;;;;5.00;4.60;;;;;;;;;;4973461;28;20205;-85
2021/10/18 06:04:02;;;;;;;4.63;3.83;;;;;;;;;;4973425;28;20243;-86
2021/10/18 06:06:32;;;;;;;4.17;3.83;;;;;;;;;;4973689;28;20230;-85
2021/10/18 06:08:59;;;;;;;4.37;3.73;;;;;;;;;;4973066;28;20208;-85
2021/10/18 06:11:26;;;;;;;3.80;3.50;;;;;;;;;;4973398;28;20283;-86
2021/10/18 06:13:55;;;;;;;3.50;3.20;;;;;;;;;;4973424;28;20630;-85
2021/10/18 06:16:22;;;;;;;4.00;3.70;;;;;;;;;;4962339;28;20233;-85
2021/10/18 06:18:49;;;;;;;4.33;3.93;;;;;;;;;;4953849;29;20229;-85
2021/10/18 06:21:17;;;;;;;7.77;5.37;;;;;;;;;;4953686;29;20202;-85
2021/10/18 06:23:44;;;;;;;5.40;4.90;;;;;;;;;;4953704;29;20362;-86
2021/10/18 06:26:12;;;;;;;6.53;5.27;;;;;;;;;;4953584;29;20693;-86
2021/10/18 06:28:39;;;;;;;6.57;5.67;;;;;;;;;;4953905;29;20301;-86
2021/10/18 06:31:08;;;;;;;6.13;4.90;;;;;;;;;;4953554;29;20261;-85
2021/10/18 06:33:36;;;;;;;6.33;5.43;;;;;;;;;;4952409;29;20206;-86
2021/10/18 06:36:03;;;;;;;13.17;8.47;;;;;;;;;;4952540;28;20328;-86
2021/10/18 06:38:31;;;;;;;10.47;8.60;;;;;;;;;;4953695;29;20208;-86
2021/10/18 06:40:58;;;;;;;9.20;8.30;;;;;;;;;;4956568;28;20257;-87
2021/10/18 06:43:25;;;;;;;11.07;9.53;;;;;;;;;;4957261;29;20205;-86
2021/10/18 06:45:53;;;;;;;10.00;8.50;;;;;;;;;;4957253;29;20198;-86
2021/10/18 06:48:22;;;;;;;9.67;8.73;;;;;;;;;;4957335;29;20217;-86
2021/10/18 06:50:49;;;;;;;10.70;6.77;;;;;;;;;;4956935;29;20209;-86
2021/10/18 06:53:18;;;;;;;8.63;7.70;;;;;;;;;;4957207;29;20203;-85
2021/10/18 06:55:45;;;;;;;10.00;5.40;;;;;;;;;;4957232;29;20259;-86
2021/10/18 06:58:13;;;;;;;6.23;5.00;;;;;;;;;;4957726;29;20282;-86
2021/10/18 07:00:40;;;;;;;5.60;4.50;;;;;;;;;;4956898;29;20292;-86
2021/10/18 07:03:07;;;;;;;5.00;4.60;;;;;;;;;;4957328;29;20205;-86
2021/10/18 07:05:36;;;;;;;4.93;4.50;;;;;;;;;;4956799;29;20296;-86
2021/10/18 07:08:04;;;;;;;5.27;4.60;;;;;;;;;;4956925;29;20212;-86
2021/10/18 07:10:31;;;;;;;5.30;4.80;;;;;;;;;;4956681;29;20346;-85
2021/10/18 07:12:58;;;;;;;5.57;5.03;;;;;;;;;;4957153;29;20230;-86
2021/10/18 07:15:26;;;;;;;4.70;4.20;;;;;;;;;;4956690;29;20256;-86
2021/10/18 07:17:53;;;;;;;10.43;6.63;;;;;;;;;;4956856;29;20234;-86
2021/10/18 07:20:20;;;;;;;7.53;6.43;;;;;;;;;;4956619;29;20785;-85
2021/10/18 07:22:50;;;;;;;8.80;7.27;;;;;;;;;;4956625;29;20193;-86
2021/10/18 07:25:20;;;;;;;10.43;8.07;;;;;;;;;;4956998;29;20585;-86
2021/10/18 07:27:47;;;;;;;25.50;15.40;;;;;;;;;;4956750;29;20292;-85
2021/10/18 07:30:14;;;;;;;13.43;8.80;;;;;;;;;;4956494;29;20879;-85
2021/10/18 07:32:43;;;;;;;6.20;4.87;;;;;;;;;;4956670;29;20276;-85
2021/10/18 07:35:12;;;;;;;7.20;6.50;;;;;;;;;;4956266;29;20709;-86
2021/10/18 07:37:40;;;;;;;9.13;7.60;;;;;;;;;;4956198;29;20242;-86
2021/10/18 07:40:13;;;;;;;7.13;4.13;;;;;;;;;;4956353;29;20693;-85
2021/10/18 07:42:41;;;;;;;4.23;3.83;;;;;;;;;;4956181;29;20190;-86
2021/10/18 07:45:09;;;;;;;3.33;3.03;;;;;;;;;;4956283;29;20667;-86
2021/10/18 07:47:36;;;;;;;3.50;3.20;;;;;;;;;;4956497;29;20256;-86
2021/10/18 07:50:04;;;;;;;3.57;3.20;;;;;;;;;;4956080;29;20205;-86
2021/10/18 07:52:32;;;;;;;4.10;3.50;;;;;;;;;;4954941;28;20294;-85
2021/10/18 07:55:03;;;;;;;4.30;3.90;;;;;;;;;;4956191;29;20229;-85
2021/10/18 07:57:32;;;;;;;5.00;4.50;;;;;;;;;;4956033;29;20213;-86
2021/10/18 07:59:59;;;;;;;3.87;3.57;;;;;;;;;;4955780;29;20734;-86
2021/10/18 08:02:26;;;;;;;3.57;3.23;;;;;;;;;;4956035;29;20202;-86
2021/10/18 08:04:54;;;;;;;3.57;3.27;;;;;;;;;;4955951;29;20233;-86
2021/10/18 08:07:26;;;;;;;4.97;3.73;;;;;;;;;;4955757;29;20240;-86
2021/10/18 08:09:53;;;;;;;3.80;3.50;;;;;;;;;;4955729;29;20289;-85
2021/10/18 08:12:21;;;;;;;4.50;3.43;;;;;;;;;;4955623;29;20212;-85
2021/10/18 08:14:49;;;;;;;4.23;3.83;;;;;;;;;;4955997;29;20237;-85
2021/10/18 08:17:17;;;;;;;8.50;3.73;;;;;;;;;;4955584;29;20279;-86
2021/10/18 08:19:44;;;;;;;5.57;3.87;;;;;;;;;;4956033;29;20233;-85
2021/10/18 08:22:11;;;;;;;4.97;4.47;;;;;;;;;;4955331;29;20703;-85
2021/10/18 08:24:38;;;;;;;4.33;3.93;;;;;;;;;;4955984;29;20638;-86
2021/10/18 08:27:06;;;;;;;5.50;3.90;;;;;;;;;;4955450;29;20736;-85
2021/10/18 08:29:33;;;;;;;4.73;4.33;;;;;;;;;;4955702;29;20250;-86
2021/10/18 08:32:02;;;;;;;4.87;4.43;;;;;;;;;;4955265;29;20213;-85
2021/10/18 08:34:29;;;;;;;5.20;4.33;;;;;;;;;;4955470;29;20264;-86
2021/10/18 08:36:56;;;;;;;4.40;4.00;;;;;;;;;;4954927;28;20734;-86
2021/10/18 08:42:11;;;;;;;4.33;3.93;;;;;;;;;;4955276;29;20191;-86
2021/10/18 08:44:39;;;;;;;5.13;3.87;;;;;;;;;;4955670;29;20186;-86
2021/10/18 08:47:07;;;;;;;4.53;4.13;;;;;;;;;;4954783;29;20227;-86
2021/10/18 08:49:35;;;;;;;5.37;4.00;;;;;;;;;;4955178;29;20202;-85
2021/10/18 08:52:02;;;;;;;4.90;4.43;;;;;;;;;;4955282;29;20289;-85
2021/10/18 08:54:29;;;;;;;4.43;4.03;;;;;;;;;;4955141;29;20212;-86
2021/10/18 08:56:57;;;;;;;3.90;3.60;;;;;;;;;;4954569;29;20225;-86
2021/10/18 08:59:25;;;;;;;6.37;4.07;;;;;;;;;;4954965;29;20310;-86
2021/10/18 09:01:53;;;;;;;5.50;4.13;;;;;;;;;;4955041;28;20206;-85
2021/10/18 09:04:26;;;;;;;5.93;4.80;;;;;;;;;;4954892;29;20712;-85
2021/10/18 09:06:55;;;;;;;5.47;4.90;;;;;;;;;;4954895;29;20186;-86
2021/10/18 09:09:25;;;;;;;5.83;4.27;;;;;;;;;;4954800;29;20261;-85
2021/10/18 09:11:53;;;;;;;4.63;4.23;;;;;;;;;;4954851;29;20556;-86
2021/10/18 09:14:21;;;;;;;4.60;4.20;;;;;;;;;;4954910;29;20237;-86
2021/10/18 09:16:49;;;;;;;5.23;4.73;;;;;;;;;;4954683;29;20307;-86
2021/10/18 09:19:17;;;;;;;8.87;7.97;;;;;;;;;;4954933;29;20236;-86
2021/10/18 09:21:48;;;;;;;4.67;3.87;;;;;;;;;;4954549;29;20207;-86
2021/10/18 09:24:18;;;;;;;5.20;4.70;;;;;;;;;;4954356;29;20200;-86
2021/10/18 09:26:46;;;;;;;5.20;4.37;;;;;;;;;;4954267;29;20198;-86
2021/10/18 09:29:16;;;;;;;4.53;4.13;;;;;;;;;;4954508;29;20211;-86
2021/10/18 09:31:45;;;;;;;5.03;4.33;;;;;;;;;;4954317;29;20702;-87
2021/10/18 09:34:15;;;;;;;4.03;3.63;;;;;;;;;;4954789;29;20571;-86
2021/10/18 09:36:43;;;;;;;4.17;3.80;;;;;;;;;;4954048;28;20276;-87
2021/10/18 09:39:18;;;;;;;4.40;3.93;;;;;;;;;;4954301;29;20206;-86
2021/10/18 09:41:57;;;;;;;6.63;4.20;;;;;;;;;;4954203;29;20274;-83
2021/10/18 09:44:41;;;;;;;4.13;3.73;;;;;;;;;;4954398;29;20197;-84
2021/10/18 10:52:57;;;;;;;13.17;8.50;;;;;;;;;;4970798;28;20211;-85
2021/10/18 10:55:27;;;;;;;29.57;18.73;;;;;;;;;;4976806;28;20193;-85
2021/10/18 10:57:57;;;;;;;18.63;10.57;;;;;;;;;;4976573;28;20320;-85
2021/10/18 11:00:40;;;;;;;6.43;5.80;;;;;;;;;;4976323;28;20201;-85
2021/10/18 11:03:40;;;;;;;5.53;4.63;;;;;;;;;;4976736;28;20549;-85
2021/10/18 11:06:10;;;;;;;4.83;4.33;;;;;;;;;;4976717;28;20197;-86
2021/10/18 11:08:38;;;;;;;4.67;3.57;;;;;;;;;;4976438;28;20203;-86
2021/10/18 11:11:11;;;;;;;4.43;4.03;;;;;;;;;;4976612;28;20300;-86
2021/10/18 11:13:47;;;;;;;4.63;4.23;;;;;;;;;;4976541;28;20205;-85
2021/10/18 11:16:15;;;;;;;4.90;3.90;;;;;;;;;;4976198;28;20197;-85
2021/10/18 11:18:48;;;;;;;4.43;3.93;;;;;;;;;;4976237;28;20288;-86
2021/10/18 11:21:22;;;;;;;4.80;4.10;;;;;;;;;;4976335;28;20193;-86
2021/10/18 11:24:01;;;;;;;6.77;4.20;;;;;;;;;;4976150;28;20284;-85
2021/10/18 11:26:29;;;;;;;8.67;4.53;;;;;;;;;;4976479;28;20673;-86
2021/10/18 11:28:58;;;;;;;5.07;4.57;;;;;;;;;;4976145;28;20205;-85
2021/10/18 11:31:27;;;;;;;5.83;4.80;;;;;;;;;;4975788;28;20760;-86
2021/10/18 11:34:11;;;;;;;5.20;4.70;;;;;;;;;;4977910;28;20291;-86
2021/10/18 11:36:40;;;;;;;4.10;3.70;;;;;;;;;;4979180;28;20237;-86
2021/10/18 11:39:09;;;;;;;5.40;4.90;;;;;;;;;;4980417;28;20205;-86
2021/10/18 11:42:01;;;;;;;4.40;4.00;;;;;;;;;;4978861;28;20236;-86
2021/10/18 11:44:48;;;;;;;6.43;5.83;;;;;;;;;;4981269;28;20241;-86
2021/10/18 11:47:27;;;;;;;8.90;6.33;;;;;;;;;;4979961;28;20197;-86
2021/10/18 11:50:21;;;;;;;8.67;6.67;;;;;;;;;;4979446;28;20189;-86
2021/10/18 11:52:50;;;;;;;8.43;7.33;;;;;;;;;;4956650;28;20921;-86
2021/10/18 11:55:19;;;;;;;8.00;6.27;;;;;;;;;;4978130;28;20259;-86
2021/10/18 11:57:49;;;;;;;9.00;7.13;;;;;;;;;;4975830;28;20291;-86
2021/10/18 12:00:22;;;;;;;8.57;6.50;;;;;;;;;;4975484;28;20985;-86
2021/10/18 12:02:49;;;;;;;7.13;6.37;;;;;;;;;;4975412;28;20229;-85
2021/10/18 12:05:17;;;;;;;10.43;7.13;;;;;;;;;;4975336;28;20200;-86
2021/10/18 12:07:48;;;;;;;7.77;6.70;;;;;;;;;;4975507;28;20551;-85
2021/10/18 12:10:26;;;;;;;7.37;6.43;;;;;;;;;;4975226;28;20199;-86
2021/10/18 12:13:10;;;;;;;8.47;7.60;;;;;;;;;;4975502;28;20248;-86
2021/10/18 12:15:40;;;;;;;7.90;7.17;;;;;;;;;;4975330;28;20228;-86
2021/10/18 12:18:08;;;;;;;13.20;6.43;;;;;;;;;;4975260;28;20221;-86
2021/10/18 12:20:35;;;;;;;8.87;6.80;;;;;;;;;;4975363;28;20595;-86
2021/10/18 12:23:06;;;;;;;8.10;7.30;;;;;;;;;;4975079;28;20215;-87
2021/10/18 12:25:34;;;;;;;7.73;7.03;;;;;;;;;;4975386;28;20276;-86
2021/10/18 12:28:44;;;;;;;8.53;7.73;;;;;;;;;;4975037;28;20288;-86
2021/10/18 12:31:37;;;;;;;7.50;6.80;;;;;;;;;;4960120;28;20240;-86
2021/10/18 12:34:15;;;;;;;8.37;7.23;;;;;;;;;;4974895;28;20632;-86
2021/10/18 12:36:51;;;;;;;7.03;6.43;;;;;;;;;;4974475;28;20799;-87
2021/10/18 12:39:46;;;;;;;6.67;5.83;;;;;;;;;;4974997;28;20295;-86
2021/10/18 12:42:15;;;;;;;6.93;6.23;;;;;;;;;;4975037;28;20193;-86
2021/10/18 12:44:43;;;;;;;8.33;7.40;;;;;;;;;;4974856;28;20756;-86
2021/10/18 12:47:12;;;;;;;9.73;6.30;;;;;;;;;;4974850;28;20300;-86
2021/10/18 12:49:40;;;;;;;6.40;5.80;;;;;;;;;;4975046;28;20205;-87
2021/10/18 12:52:07;;;;;;;7.33;5.73;;;;;;;;;;4974554;28;20197;-86
2021/10/18 12:54:44;;;;;;;6.30;5.80;;;;;;;;;;4974610;28;20201;-87
2021/10/18 12:57:13;;;;;;;10.10;6.63;;;;;;;;;;4974745;28;20209;-87
2021/10/18 13:00:02;;;;;;;9.37;7.70;;;;;;;;;;4974537;28;20202;-86
2021/10/18 13:02:30;;;;;;;6.43;5.93;;;;;;;;;;4974594;28;20657;-86
2021/10/18 13:05:11;;;;;;;7.77;6.80;;;;;;;;;;4974673;28;20191;-86
2021/10/18 13:07:40;;;;;;;6.47;5.70;;;;;;;;;;4974343;28;20190;-86
2021/10/18 13:10:11;;;;;;;6.67;6.07;;;;;;;;;;4974307;28;20675;-86
2021/10/18 13:12:39;;;;;;;6.83;6.23;;;;;;;;;;4974196;28;20285;-86
2021/10/18 13:15:07;;;;;;;7.07;6.40;;;;;;;;;;4974399;28;20277;-86
2021/10/18 13:17:34;;;;;;;8.20;6.47;;;;;;;;;;4973895;28;20221;-86
2021/10/18 13:20:02;;;;;;;6.87;5.97;;;;;;;;;;4974064;28;20198;-86
2021/10/18 13:22:29;;;;;;;7.17;6.47;;;;;;;;;;4973949;28;20210;-86
2021/10/18 13:24:56;;;;;;;7.23;5.37;;;;;;;;;;4973745;28;20238;-86
2021/10/18 13:27:25;;;;;;;7.03;6.43;;;;;;;;;;4974020;28;20257;-87
2021/10/18 13:29:52;;;;;;;9.90;6.70;;;;;;;;;;4973916;28;20243;-86
2021/10/18 13:32:20;;;;;;;5.70;5.20;;;;;;;;;;4974032;28;20208;-86
2021/10/18 13:34:47;;;;;;;18.23;16.13;;;;;;;;;;4973840;28;20279;-86
2021/10/18 13:37:14;;;;;;;20.17;18.27;;;;;;;;;;4935227;29;20302;-86
2021/10/18 13:39:43;;;;;;;11.57;10.37;;;;;;;;;;4935416;29;20243;-87
2021/10/18 13:42:11;;;;;;;10.60;9.50;;;;;;;;;;4935588;29;20200;-86
2021/10/18 13:44:40;;;;;;;8.60;7.53;;;;;;;;;;4935453;29;20284;-86
2021/10/18 13:47:08;;;;;;;8.50;7.70;;;;;;;;;;4935385;29;20283;-86
2021/10/18 13:49:35;;;;;;;7.00;6.37;;;;;;;;;;4934735;29;20206;-86
2021/10/18 13:52:02;;;;;;;8.57;7.73;;;;;;;;;;4934901;29;20294;-86
2021/10/18 13:54:30;;;;;;;11.23;10.10;;;;;;;;;;4935657;29;20195;-86
2021/10/18 13:56:57;;;;;;;17.53;15.63;;;;;;;;;;4935255;29;20199;-86
2021/10/18 13:59:25;;;;;;;10.87;9.20;;;;;;;;;;4934813;29;20231;-86
2021/10/18 14:01:53;;;;;;;13.43;11.00;;;;;;;;;;4935068;29;20689;-86
2021/10/18 14:04:21;;;;;;;14.23;9.30;;;;;;;;;;4935020;29;20751;-86
2021/10/18 14:06:49;;;;;;;10.10;7.73;;;;;;;;;;4934862;29;20202;-87
2021/10/18 14:09:16;;;;;;;89.27;52.10;;;;;;;;;;4935201;29;20634;-86
2021/10/18 14:11:44;;;;;;;61.20;37.80;;;;;;;;;;4934774;29;20219;-86
2021/10/18 14:14:12;;;;;;;17.27;12.90;;;;;;;;;;4935009;29;20212;-86
2021/10/18 14:16:39;;;;;;;63.03;38.67;;;;;;;;;;4935001;29;20208;-86
2021/10/18 14:19:09;;;;;;;36.73;25.67;;;;;;;;;;4935074;29;20723;-86
2021/10/18 14:21:37;;;;;;;17.83;15.93;;;;;;;;;;4935005;29;20642;-86
2021/10/18 14:24:07;;;;;;;17.77;16.17;;;;;;;;;;4935136;29;20203;-86
2021/10/18 14:26:35;;;;;;;12.77;10.63;;;;;;;;;;4934925;29;20258;-86
2021/10/18 14:29:02;;;;;;;13.87;12.40;;;;;;;;;;4934860;29;20223;-86
2021/10/18 14:31:30;;;;;;;14.27;12.20;;;;;;;;;;4934733;29;20228;-86
2021/10/18 14:33:57;;;;;;;18.10;13.97;;;;;;;;;;4935165;29;20202;-86
2021/10/18 14:36:26;;;;;;;14.23;12.60;;;;;;;;;;4959272;28;20275;-86
2021/10/18 14:38:54;;;;;;;11.03;9.93;;;;;;;;;;4953814;28;20273;-86
2021/10/18 14:41:23;;;;;;;10.77;9.20;;;;;;;;;;4963199;28;20708;-86
2021/10/18 14:43:53;;;;;;;15.60;12.10;;;;;;;;;;4972965;28;20682;-85
2021/10/18 14:46:21;;;;;;;10.87;9.77;;;;;;;;;;4969759;28;20283;-84
2021/10/18 14:48:49;;;;;;;9.50;8.60;;;;;;;;;;4963758;28;20206;-84
2021/10/18 14:51:16;;;;;;;8.80;7.93;;;;;;;;;;4972301;28;20208;-84
2021/10/18 14:53:50;;;;;;;10.57;8.77;;;;;;;;;;4972832;28;20208;-84
2021/10/18 14:56:18;;;;;;;14.53;12.77;;;;;;;;;;4972556;28;20207;-85
2021/10/18 14:58:45;;;;;;;27.93;20.43;;;;;;;;;;4972376;28;20226;-85
2021/10/18 15:01:13;;;;;;;176.37;124.47;;;;;;;;;;4974515;28;20582;-84
2021/10/18 15:03:41;;;;;;;98.73;65.80;;;;;;;;;;4976074;28;20193;-84
2021/10/18 15:06:08;;;;;;;44.90;38.27;;;;;;;;;;4976023;28;20284;-84
2021/10/18 15:08:35;;;;;;;22.73;19.87;;;;;;;;;;4976314;28;20577;-85
2021/10/18 15:11:05;;;;;;;27.07;23.03;;;;;;;;;;4975546;28;20209;-85
2021/10/18 15:13:32;;;;;;;10.60;9.50;;;;;;;;;;4976307;28;20299;-84
2021/10/18 15:16:00;;;;;;;11.17;9.13;;;;;;;;;;4975963;28;20204;-85
2021/10/18 15:18:28;;;;;;;41.13;34.87;;;;;;;;;;4975995;28;20299;-85
2021/10/18 15:20:55;;;;;;;36.97;30.23;;;;;;;;;;4975261;28;20213;-85
2021/10/18 15:23:23;;;;;;;11.83;10.50;;;;;;;;;;4975616;28;20232;-85
2021/10/18 15:25:50;;;;;;;9.47;8.43;;;;;;;;;;4975625;28;20292;-85
2021/10/18 15:28:19;;;;;;;10.13;8.00;;;;;;;;;;4976129;28;20198;-85
2021/10/18 15:30:47;;;;;;;12.17;7.80;;;;;;;;;;4975333;28;20210;-84
2021/10/18 15:33:14;;;;;;;11.30;7.53;;;;;;;;;;4975391;28;20202;-84
2021/10/18 15:35:41;;;;;;;7.63;6.93;;;;;;;;;;4975482;28;20237;-84
2021/10/18 15:38:08;;;;;;;18.77;11.87;;;;;;;;;;4974887;28;20312;-85
2021/10/18 15:40:36;;;;;;;18.47;13.10;;;;;;;;;;4975264;28;20693;-83
2021/10/18 15:43:03;;;;;;;26.23;14.70;;;;;;;;;;4975405;28;20197;-84
2021/10/18 15:45:32;;;;;;;6.43;5.73;;;;;;;;;;4975168;28;20197;-86
2021/10/18 15:48:01;;;;;;;5.13;4.37;;;;;;;;;;4975359;28;20283;-85
2021/10/18 15:50:29;;;;;;;10.30;6.30;;;;;;;;;;4975594;28;20198;-85
2021/10/18 15:52:56;;;;;;;10.20;8.03;;;;;;;;;;4975314;28;20285;-85
2021/10/18 15:55:23;;;;;;;11.07;8.30;;;;;;;;;;4975211;28;20197;-84
2021/10/18 15:57:51;;;;;;;10.27;7.57;;;;;;;;;;4975303;28;20201;-85